createdAt,value
2016-04-05T00:00:55.030Z,11.54
2016-04-05T00:01:55.032Z,11.52
2016-04-05T00:02:55.051Z,11.43
2016-04-05T00:03:55.054Z,11.49
2016-04-05T00:04:55.057Z,11.44
2016-04-05T00:05:55.059Z,11.47
2016-04-05T00:07:09.156Z,11.37
2016-04-05T00:07:55.065Z,11.43
2016-04-05T00:08:55.271Z,11.32
2016-04-05T00:09:55.070Z,11.32
2016-04-05T00:10:55.073Z,11.36
2016-04-05T00:11:55.107Z,11.33
2016-04-05T00:12:54.609Z,11.37
2016-04-05T00:13:55.096Z,11.27
2016-04-05T00:14:55.301Z,11.29
2016-04-05T00:15:55.117Z,11.28
2016-04-05T00:16:55.135Z,11.4
2016-04-05T00:17:55.106Z,11.4
2016-04-05T00:18:55.110Z,11.33
2016-04-05T00:19:55.112Z,11.46
2016-04-05T00:20:55.537Z,11.44
2016-04-05T00:21:55.134Z,11.44
2016-04-05T00:22:55.339Z,11.36
2016-04-05T00:23:55.139Z,11.32
2016-04-05T00:24:55.141Z,11.35
2016-04-05T00:25:55.159Z,11.32
2016-04-05T00:26:55.162Z,11.44
2016-04-05T00:27:55.150Z,11.32
2016-04-05T00:28:55.387Z,11.37
2016-04-05T00:29:54.405Z,11.42
2016-04-05T00:30:55.189Z,11.35
2016-04-05T00:31:55.426Z,11.36
2016-04-05T00:32:55.226Z,11.37
2016-04-05T00:33:55.213Z,11.35
2016-04-05T00:34:55.419Z,11.37
2016-04-05T00:35:55.405Z,11.32
2016-04-05T00:36:55.439Z,11.24
2016-04-05T00:37:55.207Z,11.28
2016-04-05T00:38:55.226Z,11.32
2016-04-05T00:39:55.229Z,11.24
2016-04-05T00:40:55.513Z,11.25
2016-04-05T00:41:55.453Z,11.24
2016-04-05T00:42:55.674Z,11.14
2016-04-05T00:43:55.083Z,11.11
2016-04-05T00:44:55.289Z,11.18
2016-04-05T00:45:55.245Z,11.11
2016-04-05T00:46:55.248Z,11.1
2016-04-05T00:47:55.265Z,11.04
2016-04-05T00:48:55.268Z,11
2016-04-05T00:49:55.473Z,11.03
2016-04-05T00:50:55.336Z,10.99
2016-04-05T00:51:55.308Z,11.09
2016-04-05T00:52:55.278Z,11
2016-04-05T00:53:55.282Z,11.06
2016-04-05T00:54:55.503Z,11.06
2016-04-05T00:55:55.303Z,11.1
2016-04-05T00:56:55.337Z,11.04
2016-04-05T00:57:54.824Z,11.09
2016-04-05T00:58:55.358Z,11.03
2016-04-05T00:59:55.516Z,10.96
2016-04-05T01:01:09.425Z,11
2016-04-05T01:01:55.553Z,11.03
2016-04-05T01:02:54.869Z,10.92
2016-04-05T01:03:55.325Z,10.89
2016-04-05T01:04:55.344Z,10.92
2016-04-05T01:05:55.346Z,10.91
2016-04-05T01:07:09.458Z,10.91
2016-04-05T01:07:55.397Z,10.94
2016-04-05T01:08:55.385Z,10.91
2016-04-05T01:09:55.357Z,10.92
2016-04-05T01:10:55.374Z,10.84
2016-04-05T01:11:55.627Z,10.89
2016-04-05T01:12:55.364Z,10.86
2016-04-05T01:13:55.382Z,10.86
2016-04-05T01:14:55.401Z,10.84
2016-04-05T01:15:55.387Z,10.91
2016-04-05T01:17:09.703Z,10.82
2016-04-05T01:17:55.440Z,10.89
2016-04-05T01:18:55.396Z,10.88
2016-04-05T01:19:55.399Z,10.76
2016-04-05T01:20:55.636Z,10.85
2016-04-05T01:21:55.420Z,10.81
2016-04-05T01:22:55.562Z,10.82
2016-04-05T01:24:09.737Z,10.81
2016-04-05T01:25:09.725Z,10.76
2016-04-05T01:25:55.430Z,10.73
2016-04-05T01:26:55.433Z,10.7
2016-04-05T01:27:55.905Z,10.64
2016-04-05T01:28:55.438Z,10.66
2016-04-05T01:29:55.472Z,10.68
2016-04-05T01:31:09.569Z,10.66
2016-04-05T01:31:55.462Z,10.59
2016-04-05T01:32:55.465Z,10.59
2016-04-05T01:33:55.467Z,10.56
2016-04-05T01:34:55.486Z,10.47
2016-04-05T01:35:55.488Z,10.42
2016-04-05T01:36:55.507Z,10.42
2016-04-05T01:37:55.510Z,10.41
2016-04-05T01:38:55.887Z,10.33
2016-04-05T01:39:55.703Z,10.25
2016-04-05T01:41:55.536Z,10.3
2016-04-05T01:42:55.946Z,10.23
2016-04-05T01:43:55.494Z,10.25
2016-04-05T01:44:55.810Z,10.22
2016-04-05T01:45:56.099Z,10.22
2016-04-05T01:46:55.764Z,10.2
2016-04-05T01:47:55.547Z,10.17
2016-04-05T01:48:58.628Z,10.2
2016-04-05T01:49:55.529Z,10.09
2016-04-05T01:50:55.781Z,10.07
2016-04-05T01:51:55.596Z,10.2
2016-04-05T01:52:55.740Z,10.09
2016-04-05T01:53:55.555Z,10.12
2016-04-05T01:54:55.059Z,10.12
2016-04-05T01:55:55.545Z,10.14
2016-04-05T01:56:55.548Z,10.05
2016-04-05T01:57:55.550Z,10.05
2016-04-05T01:58:55.600Z,10.02
2016-04-05T01:59:55.556Z,9.99
2016-04-05T02:00:55.825Z,10.02
2016-04-05T02:01:55.592Z,10.01
2016-04-05T02:02:55.798Z,10.08
2016-04-05T02:03:55.098Z,10.05
2016-04-05T02:04:55.586Z,10.07
2016-04-05T02:05:55.589Z,10.02
2016-04-05T02:06:55.606Z,10.07
2016-04-05T02:07:55.614Z,9.93
2016-04-05T02:08:55.601Z,9.96
2016-04-05T02:09:55.635Z,10.05
2016-04-05T02:10:55.810Z,9.96
2016-04-05T02:11:55.608Z,9.97
2016-04-05T02:12:55.627Z,9.96
2016-04-05T02:13:55.646Z,9.97
2016-04-05T02:14:55.366Z,9.96
2016-04-05T02:15:55.619Z,9.94
2016-04-05T02:16:55.653Z,9.86
2016-04-05T02:17:55.640Z,9.93
2016-04-05T02:18:55.627Z,9.96
2016-04-05T02:19:56.084Z,9.83
2016-04-05T02:20:55.868Z,9.91
2016-04-05T02:21:55.667Z,9.83
2016-04-05T02:22:55.654Z,9.86
2016-04-05T02:23:55.673Z,9.87
2016-04-05T02:24:55.675Z,9.89
2016-04-05T02:25:55.896Z,9.83
2016-04-05T02:26:55.664Z,9.79
2016-04-05T02:27:55.667Z,9.81
2016-04-05T02:28:55.686Z,9.89
2016-04-05T02:29:55.860Z,9.84
2016-04-05T02:30:55.692Z,9.87
2016-04-05T02:32:09.787Z,9.86
2016-04-05T02:32:55.697Z,9.79
2016-04-05T02:33:55.917Z,9.83
2016-04-05T02:34:55.733Z,9.86
2016-04-05T02:35:55.705Z,9.75
2016-04-05T02:36:55.223Z,9.79
2016-04-05T02:38:10.038Z,9.75
2016-04-05T02:38:55.713Z,9.81
2016-04-05T02:39:55.715Z,9.78
2016-04-05T02:40:55.718Z,9.81
2016-04-05T02:41:55.721Z,9.83
2016-04-05T02:42:55.926Z,9.83
2016-04-05T02:44:55.790Z,9.79
2016-04-05T02:45:55.718Z,9.79
2016-04-05T02:46:55.708Z,9.79
2016-04-05T02:47:55.698Z,9.83
2016-04-05T02:48:56.297Z,9.78
2016-04-05T02:49:56.115Z,9.83
2016-04-05T02:51:55.893Z,9.76
2016-04-05T02:53:55.702Z,9.75
2016-04-05T02:54:55.888Z,9.69
2016-04-05T02:55:55.874Z,9.72
2016-04-05T02:56:55.687Z,9.71
2016-04-05T02:57:55.688Z,9.71
2016-04-05T02:58:55.689Z,9.68
2016-04-05T02:59:55.815Z,9.58
2016-04-05T03:00:55.708Z,9.58
2016-04-05T03:01:55.679Z,9.54
2016-04-05T03:02:55.696Z,9.5
2016-04-05T03:03:55.761Z,9.58
2016-04-05T03:04:55.716Z,9.48
2016-04-05T03:05:55.750Z,9.48
2016-04-05T03:06:55.971Z,9.47
2016-04-05T03:07:55.771Z,9.43
2016-04-05T03:08:55.743Z,9.5
2016-04-05T03:09:55.714Z,9.46
2016-04-05T03:10:55.733Z,9.39
2016-04-05T03:11:55.735Z,9.38
2016-04-05T03:12:55.754Z,9.38
2016-04-05T03:13:55.772Z,9.39
2016-04-05T03:14:56.274Z,9.33
2016-04-05T03:15:55.793Z,9.4
2016-04-05T03:16:55.968Z,9.4
2016-04-05T03:17:55.782Z,9.36
2016-04-05T03:18:55.738Z,9.36
2016-04-05T03:19:55.740Z,9.39
2016-04-05T03:20:55.759Z,9.33
2016-04-05T03:21:55.981Z,9.35
2016-04-05T03:22:55.781Z,9.36
2016-04-05T03:23:56.204Z,9.29
2016-04-05T03:24:55.301Z,9.23
2016-04-05T03:25:55.820Z,9.29
2016-04-05T03:26:55.807Z,9.35
2016-04-05T03:27:56.012Z,9.32
2016-04-05T03:28:55.781Z,9.33
2016-04-05T03:29:55.862Z,9.31
2016-04-05T03:30:55.787Z,9.35
2016-04-05T03:32:10.087Z,9.32
2016-04-05T03:32:55.792Z,9.38
2016-04-05T03:33:55.795Z,9.32
2016-04-05T03:34:55.798Z,9.29
2016-04-05T03:35:55.797Z,9.32
2016-04-05T03:36:55.831Z,9.32
2016-04-05T03:37:55.802Z,9.29
2016-04-05T03:38:55.837Z,9.39
2016-04-05T03:39:55.808Z,9.23
2016-04-05T03:40:56.014Z,9.36
2016-04-05T03:41:56.032Z,9.36
2016-04-05T03:42:56.035Z,9.38
2016-04-05T03:43:55.819Z,9.38
2016-04-05T03:44:56.197Z,9.33
2016-04-05T03:45:55.824Z,9.36
2016-04-05T03:46:56.077Z,9.38
2016-04-05T03:47:55.846Z,9.28
2016-04-05T03:48:55.849Z,9.26
2016-04-05T03:49:55.835Z,9.14
2016-04-05T03:51:09.932Z,9.18
2016-04-05T03:51:55.840Z,9.2
2016-04-05T03:52:56.046Z,9.23
2016-04-05T03:53:55.862Z,9.17
2016-04-05T03:54:55.865Z,9.15
2016-04-05T03:55:55.883Z,9.15
2016-04-05T03:56:56.057Z,9.1
2016-04-05T03:57:55.857Z,9.01
2016-04-05T03:58:55.859Z,9.15
2016-04-05T03:59:55.784Z,9.05
2016-04-05T04:00:55.864Z,9.15
2016-04-05T04:01:55.898Z,9.05
2016-04-05T04:02:55.870Z,9.08
2016-04-05T04:03:56.091Z,9.1
2016-04-05T04:05:55.878Z,9.05
2016-04-05T04:06:55.897Z,9.08
2016-04-05T04:07:55.884Z,9.05
2016-04-05T04:08:58.902Z,9.05
2016-04-05T04:09:55.889Z,8.99
2016-04-05T04:10:55.923Z,9.05
2016-04-05T04:11:55.911Z,8.99
2016-04-05T04:12:55.897Z,9.13
2016-04-05T04:14:10.009Z,8.99
2016-04-05T04:14:55.918Z,8.94
2016-04-05T04:15:55.905Z,8.96
2016-04-05T04:16:55.908Z,8.95
2016-04-05T04:17:55.910Z,8.98
2016-04-05T04:18:55.960Z,8.95
2016-04-05T04:20:10.025Z,9.01
2016-04-05T04:20:56.121Z,9.02
2016-04-05T04:21:55.937Z,8.99
2016-04-05T04:22:56.173Z,8.98
2016-04-05T04:23:55.973Z,9.01
2016-04-05T04:24:55.960Z,8.92
2016-04-05T04:25:55.963Z,9.04
2016-04-05T04:26:55.935Z,9.01
2016-04-05T04:27:55.953Z,9.04
2016-04-05T04:28:55.956Z,9.01
2016-04-05T04:29:55.942Z,9.01
2016-04-05T04:30:55.992Z,8.99
2016-04-05T04:31:55.948Z,9.02
2016-04-05T04:32:55.967Z,9.11
2016-04-05T04:33:55.970Z,9.11
2016-04-05T04:34:55.972Z,9.11
2016-04-05T04:35:56.161Z,9.11
2016-04-05T04:36:56.196Z,9.13
2016-04-05T04:37:56.214Z,9.14
2016-04-05T04:39:10.483Z,9.14
2016-04-05T04:39:55.501Z,9.28
2016-04-05T04:40:56.191Z,9.2
2016-04-05T04:41:55.991Z,9.18
2016-04-05T04:43:10.712Z,9.15
2016-04-05T04:43:56.418Z,9.24
2016-04-05T04:44:56.249Z,9.24
2016-04-05T04:45:56.002Z,9.26
2016-04-05T04:46:56.020Z,9.28
2016-04-05T04:47:56.007Z,9.31
2016-04-05T04:48:55.994Z,9.33
2016-04-05T04:49:56.246Z,9.35
2016-04-05T04:50:56.218Z,9.36
2016-04-05T04:51:56.033Z,9.36
2016-04-05T04:52:56.223Z,9.39
2016-04-05T04:53:56.227Z,9.43
2016-04-05T04:54:56.057Z,9.4
2016-04-05T04:55:56.043Z,9.38
2016-04-05T04:56:56.032Z,9.46
2016-04-05T04:57:56.065Z,9.47
2016-04-05T04:58:56.443Z,9.4
2016-04-05T04:59:56.257Z,9.42
2016-04-05T05:00:56.042Z,9.5
2016-04-05T05:01:56.092Z,9.56
2016-04-05T05:02:56.062Z,9.56
2016-04-05T05:03:56.081Z,9.57
2016-04-05T05:04:56.287Z,9.66
2016-04-05T05:05:56.102Z,9.68
2016-04-05T05:06:56.308Z,9.72
2016-04-05T05:07:56.092Z,9.69
2016-04-05T05:08:56.079Z,9.74
2016-04-05T05:10:10.175Z,9.71
2016-04-05T05:10:56.100Z,9.75
2016-04-05T05:11:56.087Z,9.69
2016-04-05T05:12:56.105Z,9.75
2016-04-05T05:13:56.124Z,9.71
2016-04-05T05:14:56.095Z,9.69
2016-04-05T05:15:56.098Z,9.71
2016-04-05T05:16:56.100Z,9.66
2016-04-05T05:17:56.102Z,9.65
2016-04-05T05:18:56.106Z,9.76
2016-04-05T05:19:56.124Z,9.75
2016-04-05T05:20:56.126Z,9.74
2016-04-05T05:21:56.411Z,9.66
2016-04-05T05:22:56.132Z,9.69
2016-04-05T05:23:56.338Z,9.66
2016-04-05T05:24:56.154Z,9.69
2016-04-05T05:26:56.549Z,9.68
2016-04-05T05:27:56.162Z,9.68
2016-04-05T05:28:56.133Z,9.71
2016-04-05T05:29:56.151Z,9.65
2016-04-05T05:30:56.154Z,9.72
2016-04-05T05:31:56.187Z,9.78
2016-04-05T05:32:56.550Z,9.74
2016-04-05T05:33:56.175Z,9.75
2016-04-05T05:35:10.258Z,9.75
2016-04-05T05:35:56.180Z,9.78
2016-04-05T05:36:56.167Z,9.83
2016-04-05T05:37:56.186Z,9.78
2016-04-05T05:39:10.504Z,9.79
2016-04-05T05:39:56.192Z,9.83
2016-04-05T05:40:56.178Z,9.83
2016-04-05T05:42:56.200Z,9.84
2016-04-05T05:43:56.233Z,9.84
2016-04-05T05:44:56.205Z,9.89
2016-04-05T05:45:56.208Z,9.86
2016-04-05T05:46:56.225Z,9.79
2016-04-05T05:47:56.213Z,9.91
2016-04-05T05:48:56.561Z,9.84
2016-04-05T05:49:56.563Z,9.87
2016-04-05T05:50:56.220Z,9.89
2016-04-05T05:51:56.223Z,9.96
2016-04-05T05:52:56.257Z,9.97
2016-04-05T05:53:56.479Z,9.97
2016-04-05T05:54:56.528Z,10.04
2016-04-05T05:55:56.249Z,10.01
2016-04-05T05:56:56.268Z,10.04
2016-04-05T05:57:56.255Z,10.14
2016-04-05T05:58:56.585Z,10.11
2016-04-05T05:59:56.260Z,10.12
2016-04-05T06:00:56.560Z,10.12
2016-04-05T06:01:56.266Z,10.07
2016-04-05T06:02:56.690Z,10.08
2016-04-05T06:03:56.614Z,10.07
2016-04-05T06:04:56.290Z,10.26
2016-04-05T06:05:56.526Z,10.2
2016-04-05T06:06:56.294Z,10.29
2016-04-05T06:07:56.298Z,10.22
2016-04-05T06:08:56.534Z,10.36
2016-04-05T06:09:56.334Z,10.3
2016-04-05T06:10:56.525Z,10.29
2016-04-05T06:11:56.355Z,10.4
2016-04-05T06:12:56.389Z,10.36
2016-04-05T06:14:10.628Z,10.38
2016-04-05T06:14:56.316Z,10.52
2016-04-05T06:15:56.647Z,10.42
2016-04-05T06:16:56.337Z,10.52
2016-04-05T06:17:56.355Z,10.47
2016-04-05T06:19:10.439Z,10.55
2016-04-05T06:19:56.455Z,10.6
2016-04-05T06:20:56.363Z,10.59
2016-04-05T06:21:56.350Z,10.67
2016-04-05T06:22:56.728Z,10.61
2016-04-05T06:23:56.669Z,10.63
2016-04-05T06:24:56.578Z,10.64
2016-04-05T06:25:56.377Z,10.78
2016-04-05T06:26:56.395Z,10.82
2016-04-05T06:27:56.492Z,10.84
2016-04-05T06:28:56.385Z,10.79
2016-04-05T06:29:57.028Z,10.89
2016-04-05T06:30:56.407Z,10.88
2016-04-05T06:31:56.440Z,10.88
2016-04-05T06:32:56.412Z,10.89
2016-04-05T06:33:56.429Z,10.97
2016-04-05T06:34:57.010Z,10.94
2016-04-05T06:35:56.420Z,10.88
2016-04-05T06:36:56.437Z,10.97
2016-04-05T06:37:56.456Z,11.02
2016-04-05T06:38:56.459Z,11.09
2016-04-05T06:39:56.446Z,11.03
2016-04-05T06:40:56.464Z,11
2016-04-05T06:41:56.467Z,11.04
2016-04-05T06:42:56.454Z,11.14
2016-04-05T06:43:56.488Z,11.24
2016-04-05T06:44:56.491Z,11.24
2016-04-05T06:45:57.103Z,11.28
2016-04-05T06:46:56.747Z,11.33
2016-04-05T06:47:56.499Z,11.32
2016-04-05T06:48:57.126Z,11.44
2016-04-05T06:49:56.505Z,11.43
2016-04-05T06:50:56.507Z,11.46
2016-04-05T06:51:56.541Z,11.52
2016-04-05T06:52:57.075Z,11.55
2016-04-05T06:53:57.233Z,11.7
2016-04-05T06:54:56.674Z,11.61
2016-04-05T06:55:57.599Z,11.72
2016-04-05T06:58:10.654Z,11.85
2016-04-05T06:58:56.794Z,11.78
2016-04-05T07:00:10.659Z,11.88
2016-04-05T07:00:56.690Z,11.88
2016-04-05T07:01:56.724Z,11.98
2016-04-05T07:02:56.804Z,12.05
2016-04-05T07:03:57.042Z,12.02
2016-04-05T07:04:56.763Z,12.05
2016-04-05T07:05:56.843Z,12.14
2016-04-05T07:06:56.378Z,12.23
2016-04-05T07:07:55.570Z,12.21
2016-04-05T07:09:10.981Z,12.34
2016-04-05T07:09:56.997Z,12.29
2016-04-05T07:10:56.922Z,12.38
2016-04-05T07:11:56.799Z,12.45
2016-04-05T07:12:57.474Z,12.42
2016-04-05T07:13:57.695Z,12.46
2016-04-05T07:14:57.417Z,12.5
2016-04-05T07:16:10.860Z,12.59
2016-04-05T07:16:56.797Z,12.62
2016-04-05T07:17:56.863Z,12.54
2016-04-05T07:18:56.913Z,12.71
2016-04-05T07:19:57.196Z,12.79
2016-04-05T07:20:57.027Z,12.79
2016-04-05T07:21:56.905Z,12.93
2016-04-05T07:22:56.798Z,12.89
2016-04-05T07:23:56.285Z,12.96
2016-04-05T07:24:56.741Z,13.03
2016-04-05T07:25:56.743Z,13.07
2016-04-05T07:26:56.746Z,13.25
2016-04-05T07:28:11.048Z,13.32
2016-04-05T07:28:56.954Z,13.36
2016-04-05T07:29:57.301Z,13.41
2016-04-05T07:30:56.365Z,13.36
2016-04-05T07:31:57.135Z,13.33
2016-04-05T07:32:56.981Z,13.39
2016-04-05T07:33:56.358Z,13.46
2016-04-05T07:34:56.845Z,13.54
2016-04-05T07:35:57.145Z,13.62
2016-04-05T07:36:57.211Z,13.64
2016-04-05T07:38:11.138Z,13.66
2016-04-05T07:38:57.170Z,13.81
2016-04-05T07:40:10.939Z,13.89
2016-04-05T07:40:56.892Z,13.97
2016-04-05T07:41:56.864Z,13.87
2016-04-05T07:42:56.914Z,14
2016-04-05T07:43:57.105Z,14.04
2016-04-05T07:44:57.107Z,14.1
2016-04-05T07:45:56.891Z,14.06
2016-04-05T07:46:56.909Z,14.18
2016-04-05T07:47:56.911Z,14.15
2016-04-05T07:48:56.946Z,14.29
2016-04-05T07:49:57.542Z,14.27
2016-04-05T07:50:56.436Z,14.24
2016-04-05T07:51:56.938Z,14.27
2016-04-05T07:52:56.941Z,14.21
2016-04-05T07:53:57.163Z,14.33
2016-04-05T07:54:56.962Z,14.32
2016-04-05T07:55:56.965Z,14.29
2016-04-05T07:57:11.079Z,14.35
2016-04-05T07:57:56.485Z,14.36
2016-04-05T07:59:11.101Z,14.43
2016-04-05T08:00:11.103Z,14.36
2016-04-05T08:00:56.993Z,14.36
2016-04-05T08:01:57.278Z,14.43
2016-04-05T08:02:57.045Z,14.51
2016-04-05T08:03:57.065Z,14.58
2016-04-05T08:04:57.051Z,14.54
2016-04-05T08:05:57.273Z,14.55
2016-04-05T08:06:57.245Z,14.57
2016-04-05T08:07:57.497Z,14.6
2016-04-05T08:08:56.984Z,14.69
2016-04-05T08:09:57.096Z,14.57
2016-04-05T08:10:57.098Z,14.64
2016-04-05T08:11:57.101Z,14.73
2016-04-05T08:12:57.119Z,14.62
2016-04-05T08:13:57.139Z,14.77
2016-04-05T08:14:57.156Z,14.77
2016-04-05T08:15:57.144Z,14.77
2016-04-05T08:16:57.146Z,14.8
2016-04-05T08:17:57.352Z,14.84
2016-04-05T08:18:57.183Z,14.83
2016-04-05T08:19:57.169Z,14.83
2016-04-05T08:20:57.205Z,14.78
2016-04-05T08:21:57.207Z,14.92
2016-04-05T08:22:57.193Z,14.89
2016-04-05T08:23:57.212Z,14.99
2016-04-05T08:24:57.214Z,14.96
2016-04-05T08:25:57.233Z,14.95
2016-04-05T08:26:57.235Z,15.14
2016-04-05T08:27:57.238Z,15.17
2016-04-05T08:28:57.257Z,15.21
2016-04-05T08:29:57.259Z,15.21
2016-04-05T08:30:57.277Z,15.28
2016-04-05T08:31:57.468Z,15.28
2016-04-05T08:32:57.282Z,15.25
2016-04-05T08:33:56.817Z,15.36
2016-04-05T08:34:57.304Z,15.32
2016-04-05T08:35:57.323Z,15.34
2016-04-05T08:36:57.309Z,15.46
2016-04-05T08:37:57.343Z,15.51
2016-04-05T08:38:57.345Z,15.59
2016-04-05T08:39:57.348Z,15.6
2016-04-05T08:40:57.976Z,15.62
2016-04-05T08:42:11.670Z,15.68
2016-04-05T08:42:57.389Z,15.68
2016-04-05T08:44:11.893Z,15.72
2016-04-05T08:44:57.408Z,15.78
2016-04-05T08:45:57.505Z,15.83
2016-04-05T08:46:57.414Z,15.87
2016-04-05T08:47:57.636Z,15.89
2016-04-05T08:48:57.435Z,15.87
2016-04-05T08:49:57.642Z,15.94
2016-04-05T08:50:57.456Z,15.9
2016-04-05T08:51:57.505Z,16.02
2016-04-05T08:52:57.711Z,16
2016-04-05T08:53:57.557Z,16.01
2016-04-05T08:54:57.733Z,16.05
2016-04-05T08:55:57.516Z,16.08
2016-04-05T08:56:57.707Z,16.12
2016-04-05T08:57:57.538Z,16.17
2016-04-05T08:58:57.524Z,16.3
2016-04-05T08:59:57.543Z,16.33
2016-04-05T09:00:57.562Z,16.39
2016-04-05T09:01:57.548Z,16.42
2016-04-05T09:02:57.582Z,16.42
2016-04-05T09:03:57.773Z,16.49
2016-04-05T09:04:57.776Z,16.53
2016-04-05T09:05:57.590Z,16.61
2016-04-05T09:06:57.609Z,16.53
2016-04-05T09:07:57.814Z,16.63
2016-04-05T09:08:57.833Z,16.61
2016-04-05T09:09:57.481Z,16.67
2016-04-05T09:10:57.655Z,16.64
2016-04-05T09:12:11.755Z,16.75
2016-04-05T09:12:58.098Z,16.71
2016-04-05T09:13:57.695Z,16.76
2016-04-05T09:14:57.900Z,16.83
2016-04-05T09:15:57.731Z,16.88
2016-04-05T09:16:58.125Z,16.94
2016-04-05T09:17:57.705Z,16.94
2016-04-05T09:19:11.821Z,16.96
2016-04-05T09:19:57.946Z,16.93
2016-04-05T09:20:57.745Z,17
2016-04-05T09:21:57.779Z,17.04
2016-04-05T09:22:57.766Z,17.08
2016-04-05T09:23:57.769Z,17.15
2016-04-05T09:24:57.787Z,17.19
2016-04-05T09:25:58.008Z,17.23
2016-04-05T09:26:57.854Z,17.25
2016-04-05T09:27:57.827Z,17.31
2016-04-05T09:28:58.063Z,17.44
2016-04-05T09:29:57.863Z,17.43
2016-04-05T09:30:57.756Z,17.55
2016-04-05T09:31:57.868Z,17.54
2016-04-05T09:32:57.871Z,17.62
2016-04-05T09:33:57.936Z,17.56
2016-04-05T09:34:57.923Z,17.74
2016-04-05T09:35:57.910Z,17.72
2016-04-05T09:36:57.913Z,17.74
2016-04-05T09:37:57.932Z,17.78
2016-04-05T09:38:57.934Z,17.9
2016-04-05T09:39:58.359Z,17.87
2016-04-05T09:40:58.002Z,18
2016-04-05T09:41:57.973Z,18.03
2016-04-05T09:42:57.975Z,18.02
2016-04-05T09:43:58.198Z,18.15
2016-04-05T09:44:58.013Z,18.2
2016-04-05T09:45:58.546Z,18.18
2016-04-05T09:46:58.033Z,18.2
2016-04-05T09:47:58.067Z,18.23
2016-04-05T09:48:58.054Z,18.36
2016-04-05T09:49:58.072Z,18.29
2016-04-05T09:50:58.108Z,18.41
2016-04-05T09:51:58.110Z,18.45
2016-04-05T09:52:58.096Z,18.51
2016-04-05T09:53:58.100Z,18.63
2016-04-05T09:54:58.368Z,18.57
2016-04-05T09:55:58.339Z,18.62
2016-04-05T09:56:58.154Z,18.58
2016-04-05T09:57:58.157Z,18.76
2016-04-05T09:58:58.176Z,18.75
2016-04-05T09:59:58.193Z,18.84
2016-04-05T10:00:58.274Z,18.91
2016-04-05T10:01:58.198Z,18.9
2016-04-05T10:03:12.314Z,18.85
2016-04-05T10:03:58.439Z,18.91
2016-04-05T10:04:58.238Z,18.91
2016-04-05T10:05:58.256Z,18.98
2016-04-05T10:06:58.478Z,18.99
2016-04-05T10:07:58.292Z,19
2016-04-05T10:08:58.295Z,19
2016-04-05T10:09:58.298Z,19.11
2016-04-05T10:10:58.300Z,19.19
2016-04-05T10:11:58.350Z,19.21
2016-04-05T10:12:58.338Z,19.26
2016-04-05T10:13:58.450Z,19.26
2016-04-05T10:15:12.659Z,19.32
2016-04-05T10:15:58.581Z,19.41
2016-04-05T10:16:58.130Z,19.46
2016-04-05T10:17:58.398Z,19.47
2016-04-05T10:18:58.433Z,19.48
2016-04-05T10:19:58.435Z,19.44
2016-04-05T10:20:58.641Z,19.56
2016-04-05T10:22:12.771Z,19.54
2016-04-05T10:23:12.789Z,19.55
2016-04-05T10:23:58.477Z,19.61
2016-04-05T10:24:58.510Z,19.68
2016-04-05T10:25:58.030Z,19.66
2016-04-05T10:26:58.532Z,19.66
2016-04-05T10:27:58.550Z,19.73
2016-04-05T10:28:58.569Z,19.66
2016-04-05T10:29:58.618Z,19.74
2016-04-05T10:30:58.558Z,19.74
2016-04-05T10:32:59.110Z,19.78
2016-04-05T10:33:58.598Z,19.91
2016-04-05T10:34:58.616Z,19.95
2016-04-05T10:35:58.650Z,19.94
2016-04-05T10:36:58.918Z,19.94
2016-04-05T10:37:58.670Z,20.02
2016-04-05T10:38:58.673Z,19.98
2016-04-05T10:39:59.082Z,20.01
2016-04-05T10:40:58.569Z,20.06
2016-04-05T10:41:58.728Z,20.17
2016-04-05T10:42:58.747Z,20.18
2016-04-05T10:43:58.749Z,20.21
2016-04-05T10:44:58.753Z,20.24
2016-04-05T10:45:58.802Z,20.26
2016-04-05T10:46:58.773Z,20.35
2016-04-05T10:47:58.791Z,20.31
2016-04-05T10:48:58.825Z,20.36
2016-04-05T10:49:58.813Z,20.32
2016-04-05T10:50:58.877Z,20.42
2016-04-05T10:51:58.833Z,20.39
2016-04-05T10:52:59.336Z,20.59
2016-04-05T10:53:58.916Z,20.58
2016-04-05T10:54:58.935Z,20.52
2016-04-05T10:55:59.093Z,20.66
2016-04-05T10:56:58.941Z,20.67
2016-04-05T10:57:59.005Z,20.72
2016-04-05T10:58:58.946Z,20.74
2016-04-05T10:59:58.965Z,20.77
2016-04-05T11:00:58.968Z,20.8
2016-04-05T11:01:59.220Z,20.85
2016-04-05T11:02:58.988Z,20.79
2016-04-05T11:03:59.021Z,20.94
2016-04-05T11:05:59.512Z,20.92
2016-04-05T11:06:59.140Z,20.94
2016-04-05T11:07:59.114Z,20.98
2016-04-05T11:08:59.079Z,21.03
2016-04-05T11:09:59.287Z,21.1
2016-04-05T11:10:59.101Z,21.06
2016-04-05T11:11:59.120Z,21.12
2016-04-05T11:12:59.153Z,21.16
2016-04-05T11:13:59.156Z,21.27
2016-04-05T11:14:59.175Z,21.34
2016-04-05T11:15:59.162Z,21.4
2016-04-05T11:16:59.431Z,21.37
2016-04-05T11:17:59.401Z,21.42
2016-04-05T11:18:59.420Z,21.49
2016-04-05T11:19:59.235Z,21.49
2016-04-05T11:20:59.284Z,21.43
2016-04-05T11:21:59.287Z,21.49
2016-04-05T11:22:59.275Z,21.64
2016-04-05T11:23:59.293Z,21.67
2016-04-05T11:24:59.311Z,21.69
2016-04-05T11:25:59.516Z,21.71
2016-04-05T11:27:59.350Z,21.79
2016-04-05T11:28:59.572Z,21.8
2016-04-05T11:29:59.372Z,21.96
2016-04-05T11:30:59.514Z,21.94
2016-04-05T11:31:59.408Z,22
2016-04-05T11:32:59.645Z,22.1
2016-04-05T11:33:59.538Z,22.14
2016-04-05T11:34:59.479Z,22.09
2016-04-05T11:35:59.497Z,22.24
2016-04-05T11:36:59.499Z,22.3
2016-04-05T11:37:59.502Z,22.3
2016-04-05T11:39:00.098Z,22.33
2016-04-05T11:40:59.573Z,22.46
2016-04-05T11:41:59.559Z,22.45
2016-04-05T11:42:59.578Z,22.54
2016-04-05T11:43:59.595Z,22.57
2016-04-05T11:44:59.630Z,22.65
2016-04-05T11:45:59.617Z,22.6
2016-04-05T11:46:59.760Z,22.7
2016-04-05T11:48:13.766Z,22.79
2016-04-05T11:48:59.672Z,22.76
2016-04-05T11:49:59.753Z,22.79
2016-04-05T11:51:00.317Z,22.77
2016-04-05T11:51:59.740Z,22.86
2016-04-05T11:52:59.735Z,22.9
2016-04-05T11:53:59.244Z,22.95
2016-04-05T11:55:13.826Z,22.97
2016-04-05T11:55:59.966Z,22.97
2016-04-05T11:56:59.993Z,23.15
2016-04-05T11:58:00.399Z,23.09
2016-04-05T11:58:59.788Z,23.16
2016-04-05T12:00:13.882Z,23.23
2016-04-05T12:00:59.820Z,23.32
2016-04-05T12:01:59.928Z,23.28
2016-04-05T12:03:13.448Z,23.31
2016-04-05T12:04:59.949Z,23.38
2016-04-05T12:06:07.421Z,23.38
2016-04-05T12:07:09.127Z,23.54
2016-04-05T12:07:59.908Z,23.58
2016-04-05T12:08:59.925Z,23.6
2016-04-05T12:09:59.959Z,23.69
2016-04-05T12:11:05.573Z,23.65
2016-04-05T12:11:59.229Z,23.69
2016-04-05T12:12:59.998Z,23.69
2016-04-05T12:14:00.016Z,23.72
2016-04-05T12:15:00.034Z,23.87
2016-04-05T12:16:00.068Z,23.87
2016-04-05T12:17:00.274Z,23.9
2016-04-05T12:18:00.073Z,23.95
2016-04-05T12:19:00.108Z,23.91
2016-04-05T12:20:00.142Z,23.85
2016-04-05T12:21:00.160Z,24.02
2016-04-05T12:22:00.147Z,23.98
2016-04-05T12:23:00.165Z,24.1
2016-04-05T12:24:00.199Z,24.12
2016-04-05T12:25:00.202Z,24.18
2016-04-05T12:26:00.220Z,24.24
2016-04-05T12:27:00.238Z,24.24
2016-04-05T12:28:00.444Z,24.27
2016-04-05T12:29:14.372Z,24.37
2016-04-05T12:30:00.278Z,24.4
2016-04-05T12:31:00.296Z,24.43
2016-04-05T12:32:00.518Z,24.47
2016-04-05T12:33:00.348Z,24.47
2016-04-05T12:34:00.351Z,24.61
2016-04-05T12:35:00.384Z,24.58
2016-04-05T12:36:00.387Z,24.65
2016-04-05T12:37:00.406Z,24.69
2016-04-05T12:38:00.424Z,24.78
2016-04-05T12:39:00.646Z,24.76
2016-04-05T12:40:00.462Z,24.85
2016-04-05T12:41:00.479Z,24.85
2016-04-05T12:42:00.497Z,24.85
2016-04-05T12:43:00.515Z,24.76
2016-04-05T12:44:00.550Z,24.87
2016-04-05T12:45:00.756Z,24.77
2016-04-05T12:46:00.978Z,24.8
2016-04-05T12:47:00.589Z,24.77
2016-04-05T12:48:00.638Z,24.85
2016-04-05T12:49:00.673Z,24.85
2016-04-05T12:50:00.348Z,24.87
2016-04-05T12:51:01.428Z,24.84
2016-04-05T12:52:00.884Z,24.87
2016-04-05T12:53:00.700Z,24.85
2016-04-05T12:54:00.733Z,24.96
2016-04-05T12:55:00.736Z,24.95
2016-04-05T12:56:00.754Z,24.95
2016-04-05T12:57:00.803Z,25.02
2016-04-05T12:58:00.790Z,25.08
2016-04-05T12:59:00.809Z,25.08
2016-04-05T13:00:01.155Z,25.17
2016-04-05T13:01:01.610Z,25.25
2016-04-05T13:02:01.395Z,25.17
2016-04-05T13:03:00.882Z,25.25
2016-04-05T13:04:00.915Z,25.27
2016-04-05T13:05:00.918Z,25.24
2016-04-05T13:06:00.968Z,25.27
2016-04-05T13:07:01.829Z,25.25
2016-04-05T13:08:01.176Z,25.33
2016-04-05T13:09:01.727Z,25.36
2016-04-05T13:10:01.526Z,25.32
2016-04-05T13:11:01.060Z,25.38
2016-04-05T13:12:01.265Z,25.25
2016-04-05T13:13:01.065Z,25.33
2016-04-05T13:14:01.928Z,25.21
2016-04-05T13:15:01.384Z,25.28
2016-04-05T13:16:04.167Z,25.28